sim
Sign-in with your pilot id or email,
or register
Callsign
Passwort

Schedule Details

Flight Number: OEO4635
Departure: Newcastle Airport (EGNT) at 17:10
Arrival: Munich Airport (EDDM) at 19:15

Weather Information
Getting current METAR information for EGNT 010820Z 26007KT CAVOK 08/07 Q0995
Getting current METAR information for EDDM 010820Z 12003KT 060V190 3500 1300E R08L/1700U R08R/1700U BCFG FEW001 09/08 Q1008 BECMG 5000

Schedule Frequency

Route Map